Time;durP1;ratioP1;P1;durP2;ratioP2;P2;SDS_P1;SDS_P2;PMS_P1;PMS_P2;Temp;Humidity;BMP_temperature;BMP_pressure;BME280_temperature;BME280_humidity;BME280_pressure;Samples;Min_cycle;Max_cycle;Signal;HPM_P1;HPM_P2
2023/09/22 00:01:00;;;;;;;7.97;4.35;;;;;;;20.52;61.67;98795.34;5049593;27;97323;-72
2023/09/22 00:03:27;;;;;;;11.15;3.97;;;;;;;20.55;61.68;98805.72;5032719;27;101316;-72
2023/09/22 00:05:53;;;;;;;13.88;3.50;;;;;;;20.53;61.71;98803.19;5053205;27;97290;-72
2023/09/22 00:08:19;;;;;;;10.23;3.80;;;;;;;20.47;61.75;98800.28;5036316;27;97154;-72
2023/09/22 00:10:45;;;;;;;17.05;3.90;;;;;;;20.60;61.61;98802.59;5033146;27;96990;-74
2023/09/22 00:13:11;;;;;;;7.90;4.00;;;;;;;20.47;61.75;98773.63;5035586;27;98052;-72
2023/09/22 00:15:36;;;;;;;13.02;3.70;;;;;;;20.59;61.46;98801.75;5036032;27;97552;-71
2023/09/22 00:18:02;;;;;;;9.48;3.97;;;;;;;20.62;61.33;98792.63;5018798;27;97603;-71
2023/09/22 00:20:29;;;;;;;12.77;4.28;;;;;;;20.55;61.83;98811.88;5054656;27;97124;-72
2023/09/22 00:22:54;;;;;;;7.88;4.00;;;;;;;20.44;61.92;98781.94;5034971;27;97709;-73
2023/09/22 00:25:22;;;;;;;7.40;3.42;;;;;;;20.47;61.91;98801.09;5053023;27;97302;-73
2023/09/22 00:27:48;;;;;;;10.73;4.13;;;;;;;20.47;61.93;98798.44;5033297;27;97394;-73
2023/09/22 00:30:14;;;;;;;10.55;4.32;;;;;;;20.54;61.60;98788.91;5036160;27;97284;-74
2023/09/22 00:32:40;;;;;;;11.43;3.92;;;;;;;20.46;61.68;98774.63;5052203;27;98329;-73
2023/09/22 00:35:06;;;;;;;15.95;4.93;;;;;;;20.56;61.88;98786.06;5035127;27;101416;-74
2023/09/22 00:37:33;;;;;;;12.95;4.38;;;;;;;20.46;62.02;98793.28;5036293;27;96850;-74
2023/09/22 00:39:59;;;;;;;13.00;5.10;;;;;;;20.45;62.36;98794.25;5035247;27;97142;-73
2023/09/22 00:42:25;;;;;;;11.93;4.43;;;;;;;20.42;62.30;98795.41;5034918;27;101372;-74
2023/09/22 00:44:50;;;;;;;8.00;3.95;;;;;;;20.35;62.60;98779.19;5051239;27;97974;-74
2023/09/22 00:47:17;;;;;;;10.20;4.35;;;;;;;20.32;62.49;98787.47;5035625;27;97380;-73
2023/09/22 00:49:45;;;;;;;8.35;4.10;;;;;;;20.25;62.42;98774.94;5031329;27;97522;-74
2023/09/22 00:52:13;;;;;;;11.63;4.13;;;;;;;20.39;62.30;98790.41;5033756;27;98541;-73
2023/09/22 00:54:39;;;;;;;10.90;3.63;;;;;;;20.33;62.17;98783.84;5018443;27;101419;-74
2023/09/22 00:57:05;;;;;;;7.95;4.18;;;;;;;20.35;62.52;98791.66;5052722;27;96758;-76
2023/09/22 00:59:32;;;;;;;13.63;4.60;;;;;;;20.31;62.35;98783.16;5052610;27;96763;-72
2023/09/22 01:01:57;;;;;;;13.90;4.28;;;;;;;20.30;62.70;98792.13;5052762;27;97985;-72
2023/09/22 01:04:23;;;;;;;11.18;4.28;;;;;;;20.25;62.74;98790.91;5031646;28;101074;-75
2023/09/22 01:06:49;;;;;;;12.77;4.40;;;;;;;20.27;62.61;98800.41;5031477;27;97426;-74
2023/09/22 01:09:15;;;;;;;13.98;4.65;;;;;;;20.04;62.90;98761.88;5035766;27;96850;-74
2023/09/22 01:11:41;;;;;;;11.95;4.28;;;;;;;20.08;63.19;98785.41;5051645;27;98054;-76
2023/09/22 01:14:06;;;;;;;10.50;3.90;;;;;;;20.07;62.90;98773.09;5030871;27;101445;-72
2023/09/22 01:16:32;;;;;;;10.63;4.22;;;;;;;20.16;62.91;98783.81;5029579;27;97442;-72
2023/09/22 01:18:59;;;;;;;12.07;5.10;;;;;;;20.26;62.80;98792.56;5035161;27;96796;-75
2023/09/22 01:21:28;;;;;;;11.73;4.53;;;;;;;20.29;62.55;98790.44;5016542;27;101997;-72
2023/09/22 01:23:53;;;;;;;18.58;5.30;;;;;;;20.17;62.86;98791.66;5051626;27;98062;-72
2023/09/22 01:26:21;;;;;;;10.18;5.05;;;;;;;20.13;63.08;98796.44;5035060;27;97388;-74
2023/09/22 01:28:47;;;;;;;12.32;4.40;;;;;;;20.01;63.00;98779.00;5034952;27;96893;-74
2023/09/22 01:31:13;;;;;;;8.25;4.32;;;;;;;20.09;63.04;98791.56;5051595;27;98950;-74
2023/09/22 01:33:39;;;;;;;9.23;4.32;;;;;;;20.12;62.99;98778.78;5031178;27;101584;-72
2023/09/22 01:36:06;;;;;;;8.18;4.38;;;;;;;20.09;63.05;98772.91;5047771;27;97282;-73
2023/09/22 01:38:31;;;;;;;11.32;4.55;;;;;;;20.07;63.06;98778.41;5017840;27;96896;-74
2023/09/22 01:40:58;;;;;;;12.88;4.78;;;;;;;20.07;62.94;98775.75;5033883;27;97935;-73
2023/09/22 01:43:24;;;;;;;11.27;4.35;;;;;;;20.16;62.90;98791.78;5051088;27;98410;-75
2023/09/22 01:45:50;;;;;;;6.13;3.72;;;;;;;20.03;62.96;98774.34;5053126;27;97341;-74
2023/09/22 01:48:16;;;;;;;8.50;4.15;;;;;;;19.93;63.20;98773.59;5047125;27;96969;-74
2023/09/22 01:50:42;;;;;;;8.38;4.13;;;;;;;20.03;63.12;98787.66;5033834;27;100956;-72
2023/09/22 01:53:11;;;;;;;8.23;4.38;;;;;;;20.06;63.18;98787.38;5029005;27;101172;-73
2023/09/22 01:55:40;;;;;;;17.92;4.47;;;;;;;20.05;63.12;98769.72;5026269;27;99042;-74
2023/09/22 01:58:11;;;;;;;11.95;4.60;;;;;;;20.11;62.95;98768.28;5034898;27;96891;-73
2023/09/22 02:00:37;;;;;;;14.13;4.22;;;;;;;20.01;63.06;98751.53;5014833;27;101489;-73
2023/09/22 02:03:04;;;;;;;11.43;4.20;;;;;;;20.15;62.91;98768.81;5027825;27;101426;-72
2023/09/22 02:05:30;;;;;;;10.85;4.72;;;;;;;20.10;62.96;98764.78;5028348;27;98102;-73
2023/09/22 02:07:57;;;;;;;9.77;4.43;;;;;;;19.87;63.28;98734.25;5013169;28;96883;-74
2023/09/22 02:10:22;;;;;;;13.18;4.63;;;;;;;19.99;63.41;98770.31;5030056;27;101338;-74
2023/09/22 02:12:48;;;;;;;9.05;4.50;;;;;;;19.94;63.50;98774.44;5028549;27;101463;-75
2023/09/22 02:15:14;;;;;;;13.18;4.60;;;;;;;19.70;63.97;98757.19;5030938;27;96757;-74
2023/09/22 02:17:41;;;;;;;11.50;4.65;;;;;;;19.73;64.26;98772.84;5031189;27;97244;-72
2023/09/22 02:22:47;;;;;;;7.53;4.20;;;;;;;19.62;64.70;98779.16;5050771;27;98490;-74
2023/09/22 02:25:19;;;;;;;11.48;4.95;;;;;;;19.60;64.75;98777.63;5030568;27;97201;-74
2023/09/22 02:27:47;;;;;;;7.70;5.03;;;;;;;19.59;64.81;98782.13;5045214;27;96864;-74
2023/09/22 02:30:14;;;;;;;10.05;4.20;;;;;;;19.49;64.76;98765.38;5026619;28;101926;-72
2023/09/22 02:32:42;;;;;;;10.15;4.45;;;;;;;19.49;64.63;98753.88;5028506;27;101889;-72
2023/09/22 02:35:08;;;;;;;14.45;4.72;;;;;;;19.48;64.71;98758.34;5033748;27;97221;-74
2023/09/22 02:37:34;;;;;;;9.57;4.60;;;;;;;19.57;64.71;98781.44;5050651;27;97317;-75
2023/09/22 02:40:00;;;;;;;13.00;5.00;;;;;;;19.55;64.66;98769.28;5029384;27;98573;-73
2023/09/22 02:42:26;;;;;;;10.25;4.43;;;;;;;19.53;64.73;98781.88;5033056;27;101169;-74
2023/09/22 02:44:53;;;;;;;13.88;5.47;;;;;;;19.56;64.81;98785.09;5016825;27;97050;-73
2023/09/22 02:47:18;;;;;;;10.00;4.63;;;;;;;19.34;65.07;98758.84;5015644;27;97350;-75
2023/09/22 02:49:44;;;;;;;12.23;4.68;;;;;;;19.47;65.01;98785.13;5051385;27;97901;-72
2023/09/22 02:52:10;;;;;;;13.52;5.82;;;;;;;19.54;64.69;98781.72;5049771;27;97258;-74
2023/09/22 02:54:36;;;;;;;14.23;6.40;;;;;;;19.54;64.41;98779.06;5032820;27;96804;-75
2023/09/22 02:57:03;;;;;;;11.00;7.05;;;;;;;19.64;64.46;98784.34;5015115;27;96913;-72
2023/09/22 02:59:30;;;;;;;9.38;7.50;;;;;;;19.66;64.18;98774.41;5033422;27;100713;-73
2023/09/22 03:01:57;;;;;;;9.23;7.70;;;;;;;19.62;64.27;98778.34;5049893;27;97468;-74
2023/09/22 03:04:23;;;;;;;13.73;8.13;;;;;;;19.61;64.40;98782.00;5030746;27;96698;-73
2023/09/22 03:06:49;;;;;;;16.73;8.77;;;;;;;19.57;64.49;98783.25;5028908;27;97803;-74
2023/09/22 03:09:16;;;;;;;10.15;7.78;;;;;;;19.56;64.47;98771.78;5033360;27;100975;-74
2023/09/22 03:11:43;;;;;;;14.57;8.73;;;;;;;19.43;64.53;98764.13;5049624;27;100997;-71
2023/09/22 03:14:09;;;;;;;17.65;9.15;;;;;;;19.35;64.79;98766.69;5032941;27;97275;-73
2023/09/22 03:16:35;;;;;;;12.50;10.00;;;;;;;19.41;64.73;98774.09;5032642;27;96873;-72
2023/09/22 03:19:02;;;;;;;14.43;12.15;;;;;;;19.51;64.65;98787.34;5032575;27;101024;-74
2023/09/22 03:21:27;;;;;;;14.68;13.25;;;;;;;19.45;64.51;98782.59;5032863;27;97996;-72
2023/09/22 03:23:54;;;;;;;17.88;13.30;;;;;;;19.53;64.67;98805.84;5030157;28;96691;-74
2023/09/22 03:26:20;;;;;;;15.00;4.85;;;;;;;19.47;64.81;98803.75;5014177;27;96867;-72
2023/09/22 03:28:48;;;;;;;11.20;4.25;;;;;;;19.42;65.10;98801.53;5032722;27;101397;-72
2023/09/22 03:31:16;;;;;;;8.27;4.38;;;;;;;19.39;64.55;98781.34;5015615;27;100423;-76
2023/09/22 03:33:46;;;;;;;14.07;4.82;;;;;;;19.53;64.66;98801.34;5033061;27;97306;-72
2023/09/22 03:36:12;;;;;;;9.43;5.18;;;;;;;19.34;64.78;98766.81;5032064;27;96866;-74
2023/09/22 03:38:39;;;;;;;9.32;4.00;;;;;;;19.48;64.57;98792.13;5052283;27;101519;-71
2023/09/22 03:41:05;;;;;;;10.57;4.57;;;;;;;19.48;64.60;98782.31;5032661;27;101509;-72
2023/09/22 03:43:33;;;;;;;12.70;4.80;;;;;;;19.46;64.80;98794.94;5023739;27;96861;-72
2023/09/22 03:45:59;;;;;;;8.95;4.75;;;;;;;19.35;64.63;98765.84;5034699;27;97460;-74
2023/09/22 03:48:25;;;;;;;10.10;4.50;;;;;;;19.51;64.77;98786.50;5035334;27;101336;-74
2023/09/22 03:50:50;;;;;;;15.02;4.78;;;;;;;19.49;64.81;98792.00;5032305;27;99569;-73
2023/09/22 03:53:16;;;;;;;13.75;4.28;;;;;;;19.45;64.78;98791.41;5053145;27;97058;-72
2023/09/22 03:55:44;;;;;;;12.98;4.63;;;;;;;19.42;64.49;98777.56;5034489;27;98014;-72
2023/09/22 03:58:10;;;;;;;14.80;4.93;;;;;;;19.48;64.77;98792.13;5052821;27;101359;-73
2023/09/22 04:00:36;;;;;;;9.13;4.55;;;;;;;19.43;64.85;98787.22;5035841;27;101215;-72
2023/09/22 04:03:03;;;;;;;13.15;4.60;;;;;;;19.45;64.64;98786.09;5015730;28;97125;-72
2023/09/22 04:05:29;;;;;;;10.95;4.20;;;;;;;19.44;64.50;98776.44;5017529;27;97191;-73
2023/09/22 04:07:57;;;;;;;8.48;4.80;;;;;;;19.40;64.63;98761.78;5004694;27;100951;-73
2023/09/22 04:10:25;;;;;;;13.82;4.50;;;;;;;19.46;64.64;98771.00;5044780;27;98409;-72
2023/09/22 04:12:51;;;;;;;15.65;4.82;;;;;;;19.44;64.76;98770.28;5016721;27;97535;-74
2023/09/22 04:15:17;;;;;;;11.80;4.43;;;;;;;19.47;64.79;98761.19;5032354;28;96946;-72
2023/09/22 04:17:43;;;;;;;9.43;4.32;;;;;;;19.43;64.75;98773.91;5010137;27;101234;-72
2023/09/22 04:20:11;;;;;;;13.25;4.55;;;;;;;19.34;64.82;98769.47;5035083;27;101066;-72
2023/09/22 04:22:38;;;;;;;11.75;4.95;;;;;;;19.44;64.69;98803.06;5030974;27;97367;-72
2023/09/22 04:25:11;;;;;;;13.07;4.38;;;;;;;19.45;64.63;98807.38;5018969;27;96827;-71
2023/09/22 04:27:46;;;;;;;9.13;4.43;;;;;;;19.47;64.53;98801.94;5033339;27;98047;-72
2023/09/22 04:30:16;;;;;;;9.18;4.40;;;;;;;19.57;64.47;98823.19;5052556;27;97336;-72
2023/09/22 04:32:45;;;;;;;14.30;4.57;;;;;;;19.31;63.89;98765.28;5034630;27;97734;-72
2023/09/22 04:35:11;;;;;;;14.60;5.43;;;;;;;19.71;63.93;98813.91;5053683;27;96901;-72
2023/09/22 04:37:37;;;;;;;10.20;4.63;;;;;;;19.71;63.71;98808.59;5017146;27;100857;-72
2023/09/22 04:40:09;;;;;;;12.23;5.00;;;;;;;19.66;63.77;98799.22;5051721;27;97301;-73
2023/09/22 04:42:35;;;;;;;13.57;5.13;;;;;;;19.77;63.49;98823.97;5034648;27;97140;-73
2023/09/22 04:45:01;;;;;;;14.65;4.93;;;;;;;19.82;63.47;98819.06;5051758;27;97937;-72
2023/09/22 04:47:27;;;;;;;10.48;4.38;;;;;;;19.73;63.47;98811.94;5050745;27;100794;-73
2023/09/22 04:49:53;;;;;;;14.55;4.65;;;;;;;19.69;63.88;98832.69;5034593;27;97355;-72
2023/09/22 04:52:18;;;;;;;14.65;4.57;;;;;;;19.56;64.29;98837.47;5034880;27;96918;-77
2023/09/22 04:54:44;;;;;;;17.08;6.07;;;;;;;19.54;64.46;98836.78;5032019;28;97400;-78
2023/09/22 04:57:09;;;;;;;12.80;5.00;;;;;;;19.40;64.74;98846.91;5033518;27;98256;-78
2023/09/22 04:59:35;;;;;;;10.80;4.80;;;;;;;19.53;64.60;98859.88;5034760;27;100832;-77
2023/09/22 05:02:01;;;;;;;9.85;4.70;;;;;;;19.67;64.18;98863.94;5023417;27;96773;-75
2023/09/22 05:04:28;;;;;;;11.27;4.68;;;;;;;19.87;63.71;98897.50;5033216;27;97294;-76
2023/09/22 05:06:54;;;;;;;12.27;5.65;;;;;;;19.95;63.31;98891.44;5051434;27;98298;-76
2023/09/22 05:09:20;;;;;;;13.05;5.28;;;;;;;20.00;63.33;98883.00;5051874;27;98412;-76
2023/09/22 05:11:46;;;;;;;11.50;4.78;;;;;;;20.08;63.17;98875.13;5033420;27;96825;-74
2023/09/22 05:14:12;;;;;;;12.05;5.13;;;;;;;19.93;63.16;98861.47;5035353;27;97456;-75
2023/09/22 05:16:37;;;;;;;12.98;5.10;;;;;;;20.10;63.09;98866.00;5034094;27;97589;-75
2023/09/22 05:19:03;;;;;;;10.30;4.60;;;;;;;19.94;63.56;98868.47;5032395;27;101207;-75
2023/09/22 05:21:29;;;;;;;11.52;4.45;;;;;;;19.83;63.82;98873.97;5016910;27;97255;-75
2023/09/22 05:23:55;;;;;;;8.90;4.63;;;;;;;19.66;64.11;98865.78;5052237;27;96812;-76
2023/09/22 05:26:21;;;;;;;11.25;4.40;;;;;;;19.62;64.80;98874.97;5027239;28;97470;-76
2023/09/22 05:28:46;;;;;;;12.98;4.50;;;;;;;19.39;64.76;98845.22;5042503;27;97680;-76
2023/09/22 05:31:12;;;;;;;10.43;4.22;;;;;;;19.32;65.48;98870.72;5049619;27;97048;-75
2023/09/22 05:33:37;;;;;;;8.65;4.22;;;;;;;19.29;65.73;98865.69;5051205;27;96859;-75
2023/09/22 05:36:05;;;;;;;9.48;4.55;;;;;;;19.35;65.28;98830.53;5033244;27;97227;-75
2023/09/22 05:38:31;;;;;;;8.77;4.25;;;;;;;19.44;65.22;98853.63;5043239;27;97783;-75
2023/09/22 05:40:56;;;;;;;14.02;4.43;;;;;;;19.77;64.56;98871.88;5052550;27;97165;-76
2023/09/22 05:43:22;;;;;;;13.02;5.32;;;;;;;19.81;64.07;98865.28;5051902;27;97116;-76
2023/09/22 05:45:57;;;;;;;16.30;4.43;;;;;;;19.79;64.47;98893.88;5013059;28;101085;-75
2023/09/22 05:48:23;;;;;;;12.10;4.60;;;;;;;19.80;64.29;98892.91;5052349;27;97774;-77
2023/09/22 05:50:59;;;;;;;15.30;5.07;;;;;;;19.82;64.32;98874.97;5032015;28;97190;-76
2023/09/22 05:53:25;;;;;;;8.20;4.20;;;;;;;20.01;63.75;98887.34;5031959;27;97243;-75
2023/09/22 05:56:08;;;;;;;11.60;4.38;;;;;;;20.16;63.24;98904.53;5026695;28;101306;-75
2023/09/22 05:58:38;;;;;;;13.20;4.70;;;;;;;20.38;62.79;98905.94;5017297;27;101104;-75
2023/09/22 06:01:07;;;;;;;11.27;4.40;;;;;;;20.59;62.36;98903.03;5034007;27;96900;-75
2023/09/22 06:03:34;;;;;;;14.02;4.32;;;;;;;20.49;62.30;98902.25;5017174;27;96997;-75
2023/09/22 06:06:11;;;;;;;11.80;4.93;;;;;;;20.55;62.35;98905.19;5050223;27;98389;-76
2023/09/22 06:08:37;;;;;;;14.50;5.68;;;;;;;20.45;62.03;98868.88;5014778;27;101010;-75
2023/09/22 06:11:04;;;;;;;10.07;4.50;;;;;;;20.67;61.70;98881.81;5050596;27;97843;-75
2023/09/22 06:13:30;;;;;;;12.88;4.47;;;;;;;21.09;61.07;98905.22;5033384;27;96910;-76
2023/09/22 06:15:56;;;;;;;13.23;4.43;;;;;;;21.13;60.52;98885.22;5026058;27;100998;-74
2023/09/22 06:18:22;;;;;;;14.43;4.88;;;;;;;21.49;59.92;98901.19;5049989;27;98577;-76
2023/09/22 06:20:48;;;;;;;10.65;4.30;;;;;;;21.87;58.63;98910.63;5028530;27;96796;-76
2023/09/22 06:23:14;;;;;;;9.07;4.15;;;;;;;22.89;56.04;98938.25;5050736;27;97342;-75
2023/09/22 06:25:40;;;;;;;11.15;4.22;;;;;;;23.20;55.28;98930.47;5009957;28;101231;-75
2023/09/22 06:28:05;;;;;;;15.23;4.50;;;;;;;23.38;54.85;98922.25;5043008;27;99738;-74
2023/09/22 06:30:34;;;;;;;11.48;4.43;;;;;;;23.60;53.93;98902.00;5051170;27;96804;-75
2023/09/22 06:33:01;;;;;;;12.93;3.78;;;;;;;23.52;54.46;98927.97;5051804;27;97405;-75
2023/09/22 06:35:26;;;;;;;13.90;4.35;;;;;;;23.51;54.57;98932.47;5033030;27;97652;-75
2023/09/22 06:37:53;;;;;;;14.15;4.13;;;;;;;23.46;54.49;98942.84;5050653;27;97465;-75
2023/09/22 06:40:19;;;;;;;10.02;4.30;;;;;;;24.07;53.40;98948.66;5044437;27;97336;-75
2023/09/22 06:42:45;;;;;;;9.35;4.07;;;;;;;24.06;53.05;98950.50;5050145;27;97309;-75
2023/09/22 06:45:11;;;;;;;11.45;4.35;;;;;;;24.72;51.84;98958.28;5046058;27;98004;-76
2023/09/22 06:47:37;;;;;;;16.88;5.53;;;;;;;25.24;50.95;98968.41;5028663;28;97327;-76
2023/09/22 06:50:06;;;;;;;8.68;3.78;;;;;;;26.48;47.57;98971.59;5048725;27;97354;-75
2023/09/22 06:52:33;;;;;;;16.63;4.45;;;;;;;26.65;47.46;98973.09;5046162;27;97003;-75
2023/09/22 06:55:00;;;;;;;14.10;3.85;;;;;;;27.29;46.28;98970.50;5050447;27;97448;-73
2023/09/22 06:57:26;;;;;;;9.65;3.42;;;;;;;28.17;44.18;98981.81;5037191;27;97483;-76
2023/09/22 06:59:55;;;;;;;12.18;3.65;;;;;;;28.75;42.67;98957.22;5016035;27;96900;-82
2023/09/22 07:02:22;;;;;;;7.00;3.65;;;;;;;27.97;43.85;98970.06;5050614;27;97255;-84
2023/09/22 07:04:47;;;;;;;11.18;4.07;;;;;;;27.70;44.88;98967.13;5040402;27;97699;-82
2023/09/22 07:07:13;;;;;;;10.30;3.70;;;;;;;27.22;45.49;98966.06;5052043;27;97350;-79
2023/09/22 07:09:43;;;;;;;10.35;3.78;;;;;;;29.23;42.23;98951.72;5033272;27;97242;-79
2023/09/22 07:12:08;;;;;;;7.67;3.67;;;;;;;29.68;40.94;98951.19;5030756;27;97242;-80
2023/09/22 07:14:34;;;;;;;8.90;3.42;;;;;;;29.06;41.89;98958.56;5029998;27;99909;-79
2023/09/22 07:17:00;;;;;;;8.73;3.30;;;;;;;29.92;40.52;98966.75;5036376;27;101496;-76
2023/09/22 07:19:25;;;;;;;11.88;3.83;;;;;;;32.08;37.48;98956.25;5033229;28;97075;-82
2023/09/22 07:21:51;;;;;;;9.45;3.78;;;;;;;33.73;34.71;98955.09;5054928;27;97046;-79
2023/09/22 07:24:18;;;;;;;13.25;3.40;;;;;;;35.09;32.34;98963.78;5032797;27;101678;-82
2023/09/22 07:26:44;;;;;;;15.95;3.58;;;;;;;35.35;31.87;98978.69;5054341;27;97425;-79
2023/09/22 07:29:09;;;;;;;16.30;3.60;;;;;;;36.25;30.51;98973.31;5053668;27;97252;-80
2023/09/22 07:31:35;;;;;;;10.18;3.60;;;;;;;36.69;30.45;98976.09;5053907;27;96760;-81
2023/09/22 07:34:00;;;;;;;10.43;3.45;;;;;;;36.45;30.75;98986.41;5054326;27;98269;-81
2023/09/22 07:36:27;;;;;;;11.52;4.35;;;;;;;33.48;33.92;98982.47;5054641;27;98609;-82
2023/09/22 07:38:53;;;;;;;18.00;4.47;;;;;;;31.94;36.57;98975.38;5050835;27;97980;-79
2023/09/22 07:41:19;;;;;;;13.60;5.10;;;;;;;30.83;38.23;98978.59;5052827;27;97255;-79
2023/09/22 07:43:45;;;;;;;11.70;4.85;;;;;;;32.01;36.35;98969.88;5053489;27;97450;-79
2023/09/22 07:46:11;;;;;;;10.57;3.85;;;;;;;34.51;32.14;98978.38;5052471;27;97363;-80
2023/09/22 07:48:37;;;;;;;10.63;3.83;;;;;;;34.66;32.53;98972.47;5054153;27;96678;-81
2023/09/22 07:51:03;;;;;;;12.23;4.65;;;;;;;37.50;28.91;98948.78;5028957;27;96896;-79
2023/09/22 07:53:29;;;;;;;13.57;3.67;;;;;;;38.47;27.73;98965.88;5053096;27;97962;-82
2023/09/22 07:55:55;;;;;;;7.82;3.00;;;;;;;37.87;28.70;98961.63;5053089;27;97360;-82
2023/09/22 07:58:24;;;;;;;10.10;2.85;;;;;;;37.99;28.38;98950.50;5052155;27;96939;-82
2023/09/22 08:00:51;;;;;;;9.85;2.70;;;;;;;39.47;26.34;98950.22;5053614;27;97287;-82
2023/09/22 08:03:18;;;;;;;6.47;2.72;;;;;;;41.51;23.60;98973.41;5053909;27;97563;-81
2023/09/22 08:05:45;;;;;;;7.90;3.10;;;;;;;41.94;23.34;98946.84;5053411;27;97415;-82
2023/09/22 08:08:12;;;;;;;8.75;2.85;;;;;;;40.57;24.76;98956.88;5036154;27;97513;-82
2023/09/22 08:10:40;;;;;;;8.35;3.10;;;;;;;41.01;24.52;98973.44;5030652;27;97485;-81
2023/09/22 08:13:09;;;;;;;12.15;3.17;;;;;;;42.16;23.22;98971.16;5045534;27;98409;-81
2023/09/22 08:15:35;;;;;;;3.92;2.30;;;;;;;39.43;25.65;98971.91;5025805;27;98799;-77
2023/09/22 08:18:02;;;;;;;7.25;2.85;;;;;;;38.33;27.06;98967.41;5029058;27;97936;-74
2023/09/22 08:20:37;;;;;;;12.00;3.28;;;;;;;36.68;29.00;98964.34;5043862;27;97362;-73
2023/09/22 08:23:04;;;;;;;6.78;2.85;;;;;;;34.72;31.34;98974.22;5046981;27;98176;-74
2023/09/22 08:25:30;;;;;;;8.80;6.20;;;;;;;33.12;33.38;98989.72;5049238;27;97455;-73
2023/09/22 08:27:56;;;;;;;7.70;6.90;;;;;;;32.33;34.50;98981.44;5048358;27;97389;-75
2023/09/22 08:30:23;;;;;;;12.70;9.98;;;;;;;33.18;34.03;98972.47;5051456;27;98147;-75
2023/09/22 08:32:49;;;;;;;8.63;2.50;;;;;;;33.46;33.45;98944.66;5049529;27;97798;-74
2023/09/22 08:35:18;;;;;;;4.32;2.28;;;;;;;36.33;30.01;98970.13;5050615;27;97246;-75
2023/09/22 08:37:43;;;;;;;9.75;3.28;;;;;;;34.78;31.42;98995.03;5046567;27;96785;-74
2023/09/22 08:40:11;;;;;;;5.18;1.70;;;;;;;33.15;33.73;99000.13;5049413;27;97379;-74
2023/09/22 08:42:38;;;;;;;10.60;2.25;;;;;;;31.55;35.55;98990.91;5050753;27;97438;-75
2023/09/22 08:45:06;;;;;;;5.57;2.40;;;;;;;31.00;36.65;98987.06;5026493;27;97438;-75
2023/09/22 08:47:33;;;;;;;5.55;2.40;;;;;;;30.43;37.60;98970.63;5032400;27;96844;-75
2023/09/22 08:49:59;;;;;;;6.78;2.58;;;;;;;30.07;38.10;98987.31;5050216;27;97316;-74
2023/09/22 08:52:25;;;;;;;4.35;2.30;;;;;;;29.58;39.15;98973.16;5049614;27;98034;-74
2023/09/22 08:54:51;;;;;;;9.63;2.63;;;;;;;29.18;39.34;98997.47;5052433;27;98079;-75
2023/09/22 08:57:17;;;;;;;11.48;2.78;;;;;;;28.84;40.48;99014.56;5050398;27;97100;-74
2023/09/22 08:59:43;;;;;;;15.57;2.80;;;;;;;28.51;41.26;99019.78;5052230;27;97203;-74
2023/09/22 09:02:11;;;;;;;11.80;2.70;;;;;;;28.27;41.71;99032.69;5035714;27;99472;-74
2023/09/22 09:04:39;;;;;;;7.25;2.70;;;;;;;28.07;41.96;99021.78;5044672;27;97223;-74
2023/09/22 09:07:06;;;;;;;8.02;2.90;;;;;;;27.97;42.06;99003.25;5046236;27;97346;-74
2023/09/22 09:09:45;;;;;;;8.68;3.20;;;;;;;28.24;42.14;99013.38;5050444;27;96807;-74
2023/09/22 09:12:12;;;;;;;8.43;7.30;;;;;;;28.09;42.34;99018.88;5049418;27;97485;-74
2023/09/22 09:14:38;;;;;;;16.38;6.25;;;;;;;27.93;42.87;99034.34;5032378;27;97329;-74
2023/09/22 09:17:20;;;;;;;12.63;7.25;;;;;;;27.78;42.74;99044.34;5051394;27;97262;-72
2023/09/22 09:19:56;;;;;;;9.13;8.23;;;;;;;27.45;43.13;99035.94;5050282;27;97241;-74
2023/09/22 09:22:31;;;;;;;4.68;2.42;;;;;;;27.18;43.51;99027.59;5049143;27;97599;-74
2023/09/22 09:24:59;;;;;;;3.95;2.15;;;;;;;27.10;43.92;99041.94;5051229;27;97416;-75
2023/09/22 09:27:25;;;;;;;8.93;7.13;;;;;;;26.89;44.27;99036.53;5015033;27;96843;-74
2023/09/22 09:29:53;;;;;;;5.40;1.60;;;;;;;26.84;44.31;99055.94;5049161;27;96904;-75
2023/09/22 09:32:25;;;;;;;9.65;1.70;;;;;;;26.70;44.33;99047.88;5048251;27;97423;-74
2023/09/22 09:34:52;;;;;;;9.38;1.75;;;;;;;26.76;44.21;99050.66;5048555;27;98128;-73
2023/09/22 09:37:19;;;;;;;8.85;2.10;;;;;;;26.74;43.87;99025.78;5046373;27;96792;-75
2023/09/22 09:39:50;;;;;;;7.85;1.48;;;;;;;26.79;44.04;99035.97;5032737;27;97506;-75
2023/09/22 09:42:18;;;;;;;9.15;1.83;;;;;;;26.96;43.74;99037.44;5048783;27;97903;-78
2023/09/22 09:45:10;;;;;;;10.25;1.70;;;;;;;27.24;43.54;99053.75;5049410;27;98227;-76
2023/09/22 09:47:37;;;;;;;8.82;2.05;;;;;;;27.25;43.42;99036.56;5023883;27;98586;-78
2023/09/22 09:50:08;;;;;;;6.50;2.53;;;;;;;27.50;43.20;99046.97;5024086;28;96988;-77
2023/09/22 09:52:45;;;;;;;3.28;1.52;;;;;;;27.48;43.17;99047.16;5030843;27;100538;-77
2023/09/22 09:55:12;;;;;;;9.82;3.10;;;;;;;27.35;43.54;99043.50;5048945;27;97368;-75
2023/09/22 09:57:44;;;;;;;10.45;2.78;;;;;;;27.13;43.68;99021.06;5048801;27;97246;-78
2023/09/22 10:00:21;;;;;;;7.55;2.00;;;;;;;27.23;43.47;99032.41;5049777;27;96882;-76
2023/09/22 10:02:48;;;;;;;8.57;2.20;;;;;;;27.31;43.47;99033.13;5021075;27;101508;-75
2023/09/22 10:05:18;;;;;;;7.63;1.98;;;;;;;27.38;43.49;99022.41;5031160;27;99148;-78
2023/09/22 10:07:45;;;;;;;6.60;1.83;;;;;;;27.45;43.29;99009.81;5018496;28;96919;-76
2023/09/22 10:10:12;;;;;;;9.18;1.60;;;;;;;27.98;42.39;99033.72;5030593;27;97570;-72
2023/09/22 10:12:40;;;;;;;10.50;1.60;;;;;;;28.40;41.53;99038.19;5048119;27;98115;-72
2023/09/22 10:15:07;;;;;;;4.03;1.67;;;;;;;28.35;41.38;99024.44;5046937;27;101143;-75
2023/09/22 10:17:32;;;;;;;7.05;1.80;;;;;;;28.33;41.71;99039.16;5046401;27;97290;-73
2023/09/22 10:20:06;;;;;;;6.82;1.92;;;;;;;28.13;41.89;99033.63;5046767;27;97050;-75
2023/09/22 10:22:35;;;;;;;4.38;1.65;;;;;;;28.00;42.37;99034.38;5045718;27;98451;-75
2023/09/22 10:25:13;;;;;;;5.55;1.60;;;;;;;27.98;42.27;99050.78;5014119;27;103851;-74
2023/09/22 10:27:55;;;;;;;4.43;1.83;;;;;;;27.89;42.56;99043.81;5047608;27;97459;-75
2023/09/22 10:30:22;;;;;;;5.53;1.92;;;;;;;27.76;42.96;99049.09;5047680;27;97238;-74
2023/09/22 10:32:47;;;;;;;2.95;1.60;;;;;;;27.55;42.90;99028.38;5050595;27;98235;-74
2023/09/22 10:35:14;;;;;;;6.20;2.33;;;;;;;27.67;43.29;99040.31;5033764;27;97443;-74
2023/09/22 10:37:56;;;;;;;5.82;1.90;;;;;;;27.83;42.55;99031.13;5023485;27;96889;-75
2023/09/22 10:40:22;;;;;;;4.03;2.00;;;;;;;27.89;43.05;99032.22;5033181;27;96897;-75
2023/09/22 10:42:50;;;;;;;5.90;2.15;;;;;;;27.83;43.18;99052.69;5050610;27;97639;-74
2023/09/22 10:45:27;;;;;;;10.20;2.80;;;;;;;27.66;43.79;99059.34;5050688;27;97422;-74
2023/09/22 10:47:53;;;;;;;9.65;2.78;;;;;;;27.61;43.98;99051.84;5030866;27;97976;-72
2023/09/22 10:50:33;;;;;;;6.25;2.28;;;;;;;27.68;43.49;99058.13;5052273;27;96869;-72
2023/09/22 10:53:02;;;;;;;7.57;2.03;;;;;;;27.65;43.60;99066.59;5045125;27;97541;-72
2023/09/22 10:55:34;;;;;;;4.25;2.30;;;;;;;27.43;43.80;99057.69;5033649;27;97422;-74
2023/09/22 10:58:03;;;;;;;4.88;2.10;;;;;;;27.39;44.24;99080.63;5041218;27;97494;-75
2023/09/22 11:00:31;;;;;;;5.07;1.75;;;;;;;27.39;44.02;99074.44;5021044;27;99197;-73
2023/09/22 11:03:04;;;;;;;6.55;1.77;;;;;;;27.28;44.22;99055.03;5024601;28;99201;-72
2023/09/22 11:05:30;;;;;;;9.05;2.28;;;;;;;27.25;44.45;99068.88;5049357;27;97433;-73
2023/09/22 11:07:55;;;;;;;5.43;2.53;;;;;;;27.20;44.71;99075.84;5047728;27;96806;-75
2023/09/22 11:10:22;;;;;;;5.53;1.90;;;;;;;27.20;44.79;99081.25;5051991;27;97061;-75
2023/09/22 11:12:51;;;;;;;6.22;2.78;;;;;;;27.06;44.85;99043.38;5031957;27;97958;-73
2023/09/22 11:15:18;;;;;;;19.42;2.55;;;;;;;27.37;44.66;99069.22;5049701;27;97474;-72
2023/09/22 11:17:46;;;;;;;14.30;2.67;;;;;;;27.55;44.40;99076.88;5029076;28;97433;-73
2023/09/22 11:20:22;;;;;;;8.48;3.00;;;;;;;27.60;44.25;99074.44;5043786;27;98489;-73
2023/09/22 11:22:48;;;;;;;11.75;2.50;;;;;;;27.49;44.78;99073.09;5048892;27;97570;-73
2023/09/22 11:25:14;;;;;;;6.82;2.55;;;;;;;27.45;44.81;99089.81;5049762;27;97393;-72
2023/09/22 11:27:47;;;;;;;5.10;2.80;;;;;;;27.33;45.30;99089.47;5044265;27;98259;-73
2023/09/22 11:30:19;;;;;;;8.65;2.53;;;;;;;27.22;45.53;99071.13;5029652;27;98966;-74